Time;durP1;ratioP1;P1;durP2;ratioP2;P2;SDS_P1;SDS_P2;PMS_P1;PMS_P2;Temp;Humidity;BMP_temperature;BMP_pressure;BME280_temperature;BME280_humidity;BME280_pressure;Samples;Min_cycle;Max_cycle;Signal;HPM_P1;HPM_P2
2022/07/27 00:01:46;;;;;;;13.63;5.80;;;;;;;12.85;100.00;99111.06;5138349;27;20057;-94
2022/07/27 00:04:11;;;;;;;11.63;5.70;;;;;;;12.88;100.00;99115.41;5127628;27;20386;-92
2022/07/27 00:06:37;;;;;;;11.52;5.47;;;;;;;12.87;100.00;99118.88;5122263;27;20032;-93
2022/07/27 00:09:02;;;;;;;11.95;5.45;;;;;;;12.89;100.00;99117.97;5116956;27;20463;-93
2022/07/27 00:11:28;;;;;;;13.73;5.32;;;;;;;12.89;100.00;99119.75;5117517;27;20043;-93
2022/07/27 00:13:53;;;;;;;10.38;4.82;;;;;;;12.87;100.00;99122.34;5120283;27;20035;-92
2022/07/27 00:16:19;;;;;;;11.77;5.25;;;;;;;12.85;100.00;99121.53;5121162;27;20023;-92
2022/07/27 00:18:46;;;;;;;11.23;5.10;;;;;;;12.77;100.00;99118.13;5121774;27;20028;-93
2022/07/27 00:21:11;;;;;;;12.60;5.60;;;;;;;12.68;100.00;99120.84;5119965;27;20050;-92
2022/07/27 00:23:37;;;;;;;10.88;5.65;;;;;;;12.72;100.00;99115.59;5118499;27;20594;-92
2022/07/27 00:26:02;;;;;;;13.40;5.97;;;;;;;12.81;100.00;99114.59;5121505;27;20019;-93
2022/07/27 00:28:28;;;;;;;11.50;5.90;;;;;;;12.78;100.00;99112.03;5119341;27;20049;-93
2022/07/27 00:30:53;;;;;;;13.35;6.13;;;;;;;12.70;100.00;99113.88;5117879;27;20393;-93
2022/07/27 00:33:20;;;;;;;11.98;6.07;;;;;;;12.60;100.00;99113.97;5118814;27;20046;-92
2022/07/27 00:35:45;;;;;;;12.75;5.82;;;;;;;12.64;100.00;99120.03;5113356;27;20031;-93
2022/07/27 00:38:11;;;;;;;15.07;6.40;;;;;;;12.76;100.00;99117.28;5114444;27;20484;-92
2022/07/27 00:40:37;;;;;;;15.60;6.97;;;;;;;12.73;100.00;99109.44;5111499;27;20050;-93
2022/07/27 00:43:02;;;;;;;15.40;6.68;;;;;;;12.69;100.00;99099.91;5113820;27;20038;-92
2022/07/27 00:45:28;;;;;;;13.57;6.80;;;;;;;12.55;100.00;99107.91;5119107;27;20064;-93
2022/07/27 00:47:53;;;;;;;14.23;7.18;;;;;;;12.57;100.00;99106.16;5119587;27;20023;-92
2022/07/27 00:50:19;;;;;;;12.27;6.55;;;;;;;12.60;100.00;99111.34;5112580;27;20371;-92
2022/07/27 00:52:46;;;;;;;14.57;6.88;;;;;;;12.60;100.00;99108.72;5109394;27;20131;-92
2022/07/27 00:55:12;;;;;;;15.55;7.18;;;;;;;12.73;100.00;99101.59;5109145;27;20536;-92
2022/07/27 00:57:40;;;;;;;13.45;7.13;;;;;;;12.75;100.00;99083.28;5110573;27;20031;-93
2022/07/27 01:00:06;;;;;;;13.18;7.18;;;;;;;16.98;100.00;98999.78;5109836;27;20378;-93
2022/07/27 01:02:32;;;;;;;14.65;7.00;;;;;;;16.60;100.00;98946.50;5110076;27;20034;-92
2022/07/27 01:04:57;;;;;;;16.40;7.57;;;;;;;16.31;100.00;98935.94;5127618;27;20055;-92
2022/07/27 01:07:25;;;;;;;14.73;7.40;;;;;;;17.70;100.00;98923.56;5108068;27;20604;-92
2022/07/27 01:09:56;;;;;;;15.02;7.35;;;;;;;16.81;100.00;98929.16;5110225;27;20038;-92
2022/07/27 01:12:23;;;;;;;16.95;7.78;;;;;;;15.42;100.00;98949.75;5109885;27;20490;-92
2022/07/27 01:14:50;;;;;;;13.63;7.28;;;;;;;15.77;100.00;98944.44;5109568;27;20032;-93
2022/07/27 01:17:16;;;;;;;15.57;7.95;;;;;;;15.29;100.00;98959.69;5108901;27;20042;-93
2022/07/27 01:19:42;;;;;;;15.32;7.93;;;;;;;15.38;100.00;98968.25;5109422;27;20028;-93
2022/07/27 01:22:08;;;;;;;15.60;7.95;;;;;;;16.62;100.00;98935.00;5111789;27;20031;-93
2022/07/27 01:24:34;;;;;;;14.20;6.85;;;;;;;16.67;100.00;98938.38;5108432;27;20083;-92
2022/07/27 01:27:00;;;;;;;15.18;7.95;;;;;;;16.18;100.00;98950.34;5110111;27;20382;-92
2022/07/27 01:29:26;;;;;;;13.98;7.57;;;;;;;15.74;100.00;98944.53;5110200;27;20030;-91
2022/07/27 01:31:52;;;;;;;14.95;7.60;;;;;;;16.72;100.00;98928.53;5108727;27;20023;-93
2022/07/27 01:34:27;;;;;;;14.35;7.50;;;;;;;15.78;100.00;98918.13;5112662;27;20641;-92
2022/07/27 01:36:52;;;;;;;15.82;7.07;;;;;;;15.31;100.00;98942.13;5108602;27;20023;-92
2022/07/27 01:39:18;;;;;;;12.45;6.88;;;;;;;16.37;100.00;98956.78;5108177;27;20034;-92
2022/07/27 01:41:45;;;;;;;14.27;6.68;;;;;;;13.62;100.00;98984.19;5109154;27;20038;-92
2022/07/27 01:44:11;;;;;;;12.05;6.72;;;;;;;13.43;100.00;98999.38;5107994;27;20032;-91
2022/07/27 01:46:37;;;;;;;13.10;6.88;;;;;;;13.36;100.00;99021.34;5109771;27;20032;-91
2022/07/27 01:49:02;;;;;;;13.10;7.35;;;;;;;13.32;100.00;99032.72;5107894;27;20059;-90
2022/07/27 01:51:28;;;;;;;12.52;7.25;;;;;;;13.34;100.00;99030.06;5111656;27;20031;-92
2022/07/27 01:53:54;;;;;;;14.75;7.32;;;;;;;13.13;100.00;99029.50;5109182;27;20035;-92
2022/07/27 01:56:19;;;;;;;15.43;7.25;;;;;;;13.08;100.00;99039.19;5127276;27;20589;-92
2022/07/27 01:58:45;;;;;;;14.45;5.97;;;;;;;13.14;100.00;99045.19;5109183;27;20141;-90
2022/07/27 02:01:11;;;;;;;13.73;6.78;;;;;;;15.52;100.00;98995.91;5110237;27;20027;-91
2022/07/27 02:03:37;;;;;;;14.95;6.18;;;;;;;13.25;100.00;98991.78;5110195;27;20138;-92
2022/07/27 02:06:04;;;;;;;10.88;5.53;;;;;;;13.09;100.00;99012.13;5107179;27;20030;-92
2022/07/27 02:08:30;;;;;;;12.38;6.10;;;;;;;13.07;100.00;99019.13;5105911;27;20034;-92
2022/07/27 02:13:47;;;;;;;15.07;6.10;;;;;;;13.48;100.00;98975.72;5110792;27;20559;-92
2022/07/27 02:16:14;;;;;;;12.47;6.07;;;;;;;15.91;100.00;98951.97;5109807;27;20038;-92
2022/07/27 02:18:39;;;;;;;14.77;6.03;;;;;;;16.38;100.00;98900.63;5109823;27;20462;-92
2022/07/27 02:21:05;;;;;;;11.18;5.35;;;;;;;16.08;100.00;98893.66;5109816;27;20033;-91
2022/07/27 02:23:32;;;;;;;11.65;5.60;;;;;;;15.39;100.00;98905.13;5111523;27;20039;-92
2022/07/27 02:25:57;;;;;;;12.70;5.90;;;;;;;15.72;100.00;98897.25;5111169;27;20038;-91
2022/07/27 02:28:23;;;;;;;12.40;5.90;;;;;;;15.52;100.00;98889.91;5108136;27;21989;-92
2022/07/27 02:30:49;;;;;;;14.60;6.13;;;;;;;15.46;100.00;98890.06;5108916;27;20068;-92
2022/07/27 02:33:19;;;;;;;13.30;5.55;;;;;;;15.17;100.00;98895.19;5108294;27;20031;-92
2022/07/27 02:35:44;;;;;;;14.52;5.70;;;;;;;15.08;100.00;98886.69;5113433;27;20059;-90
2022/07/27 02:38:10;;;;;;;10.00;5.22;;;;;;;15.11;100.00;98889.22;5109176;27;20126;-92
2022/07/27 02:40:35;;;;;;;12.30;5.32;;;;;;;14.59;100.00;98894.81;5109816;27;20032;-92
2022/07/27 02:43:01;;;;;;;11.15;5.05;;;;;;;14.96;100.00;98879.97;5109154;27;20749;-91
2022/07/27 02:45:26;;;;;;;10.35;4.88;;;;;;;14.84;100.00;98886.41;5107343;27;20110;-91
2022/07/27 02:47:53;;;;;;;10.60;4.60;;;;;;;14.81;100.00;98882.06;5105868;27;20027;-92
2022/07/27 02:50:18;;;;;;;11.48;4.80;;;;;;;14.25;100.00;98889.44;5107840;27;20080;-91
2022/07/27 02:52:44;;;;;;;11.25;5.47;;;;;;;15.11;100.00;98892.69;5106869;28;20035;-91
2022/07/27 02:55:10;;;;;;;10.07;4.43;;;;;;;15.10;100.00;98876.97;5110159;27;20040;-91
2022/07/27 02:57:36;;;;;;;10.25;4.50;;;;;;;14.89;100.00;98873.16;5105836;27;20042;-91
2022/07/27 03:00:08;;;;;;;11.43;4.05;;;;;;;14.79;100.00;98875.97;5105797;27;20035;-92
2022/07/27 03:02:33;;;;;;;11.50;3.90;;;;;;;15.02;100.00;98875.41;5110422;27;20092;-91
2022/07/27 03:04:59;;;;;;;9.35;4.05;;;;;;;14.82;100.00;98875.94;5123080;27;20031;-91
2022/07/27 03:07:24;;;;;;;10.75;4.05;;;;;;;14.60;100.00;98861.53;5110529;28;20027;-92
2022/07/27 03:09:50;;;;;;;9.38;3.75;;;;;;;15.04;100.00;98856.16;5108306;27;20099;-92
2022/07/27 03:12:15;;;;;;;10.52;3.97;;;;;;;14.57;100.00;98864.25;5111751;27;20034;-92
2022/07/27 03:14:41;;;;;;;10.05;3.53;;;;;;;14.71;100.00;98862.22;5106609;27;20027;-91
2022/07/27 03:17:07;;;;;;;8.70;3.80;;;;;;;13.96;100.00;98867.38;5107443;27;20029;-92
2022/07/27 03:19:32;;;;;;;12.02;4.07;;;;;;;13.86;100.00;98871.91;5108251;27;20026;-92
2022/07/27 03:21:58;;;;;;;11.30;3.25;;;;;;;13.93;100.00;98878.78;5106071;28;20580;-92
2022/07/27 03:24:23;;;;;;;8.32;3.20;;;;;;;14.56;100.00;98860.78;5107770;27;20216;-91
2022/07/27 03:26:48;;;;;;;8.73;3.33;;;;;;;14.56;100.00;98858.16;5108611;27;20162;-91
2022/07/27 03:29:14;;;;;;;9.40;3.13;;;;;;;14.59;100.00;98855.44;5101151;27;20597;-91
2022/07/27 03:31:39;;;;;;;9.13;3.75;;;;;;;14.50;100.00;98863.53;5107702;28;20039;-91
2022/07/27 03:34:05;;;;;;;10.07;3.45;;;;;;;14.56;100.00;98847.66;5107035;27;20174;-92
2022/07/27 03:36:31;;;;;;;10.70;3.38;;;;;;;14.35;100.00;98862.13;5107132;28;20076;-93
2022/07/27 03:38:56;;;;;;;8.80;3.25;;;;;;;14.29;100.00;98864.88;5107219;27;20026;-91
2022/07/27 03:41:22;;;;;;;7.68;2.92;;;;;;;14.06;100.00;98857.53;5106185;27;20490;-91
2022/07/27 03:43:47;;;;;;;9.85;3.17;;;;;;;14.45;100.00;98839.16;5107852;27;20042;-91
2022/07/27 03:46:13;;;;;;;9.60;3.70;;;;;;;14.76;100.00;98846.34;5110227;27;21497;-91
2022/07/27 03:48:40;;;;;;;11.15;3.60;;;;;;;14.93;100.00;98838.88;5107450;27;20439;-92
2022/07/27 03:51:05;;;;;;;9.48;3.70;;;;;;;14.46;100.00;98854.88;5110335;27;20385;-91
2022/07/27 03:53:31;;;;;;;7.72;3.42;;;;;;;14.09;100.00;98841.72;5110650;27;20035;-92
2022/07/27 03:55:56;;;;;;;9.88;3.83;;;;;;;13.87;100.00;98864.91;5106726;27;20047;-92
2022/07/27 03:58:22;;;;;;;9.57;3.80;;;;;;;14.14;100.00;98853.84;5111108;27;20030;-91
2022/07/27 04:00:48;;;;;;;10.25;3.70;;;;;;;14.61;100.00;98848.41;5111844;27;20045;-91
2022/07/27 04:03:14;;;;;;;10.52;3.78;;;;;;;14.22;100.00;98860.69;5112870;27;20058;-92
2022/07/27 04:05:39;;;;;;;10.30;4.07;;;;;;;15.13;100.00;98854.13;5111327;27;20027;-91
2022/07/27 04:08:05;;;;;;;9.77;4.15;;;;;;;15.27;100.00;98855.56;5113220;27;20610;-92
2022/07/27 04:10:30;;;;;;;11.50;3.97;;;;;;;14.88;100.00;98853.91;5112641;27;20394;-92
2022/07/27 04:12:56;;;;;;;9.85;4.07;;;;;;;14.85;100.00;98859.25;5110543;27;20027;-92
2022/07/27 04:15:21;;;;;;;9.48;3.80;;;;;;;14.71;100.00;98853.44;5112865;27;20115;-91
2022/07/27 04:17:47;;;;;;;10.80;4.45;;;;;;;12.87;100.00;98867.59;5129986;27;21348;-91
2022/07/27 04:20:13;;;;;;;11.77;3.75;;;;;;;11.77;100.00;98926.63;5110976;27;20485;-92
2022/07/27 04:22:39;;;;;;;10.45;4.03;;;;;;;11.74;100.00;98950.16;5112554;27;20028;-92
2022/07/27 04:25:05;;;;;;;12.90;4.25;;;;;;;11.68;100.00;98973.75;5109724;27;20879;-91
2022/07/27 04:27:31;;;;;;;11.00;4.10;;;;;;;11.72;100.00;98994.59;5112487;27;20036;-91
2022/07/27 04:29:57;;;;;;;11.73;4.78;;;;;;;11.93;100.00;98996.13;5109933;27;20023;-90
2022/07/27 04:32:22;;;;;;;9.43;4.15;;;;;;;11.98;100.00;99000.47;5109686;27;20039;-92
2022/07/27 04:34:48;;;;;;;10.43;4.32;;;;;;;11.90;100.00;99004.00;5109155;27;20028;-92
2022/07/27 04:37:14;;;;;;;10.15;3.97;;;;;;;11.93;100.00;99010.94;5110533;27;20031;-92
2022/07/27 04:39:39;;;;;;;11.02;3.95;;;;;;;12.13;100.00;99008.13;5111688;27;20582;-92
2022/07/27 04:42:05;;;;;;;11.55;3.83;;;;;;;12.10;100.00;99006.41;5110786;27;20031;-92
2022/07/27 04:44:31;;;;;;;11.60;4.05;;;;;;;12.10;100.00;99006.41;5109646;27;20446;-92
2022/07/27 04:46:56;;;;;;;10.18;4.00;;;;;;;12.08;100.00;98999.47;5110394;27;20728;-92
2022/07/27 04:49:22;;;;;;;12.82;4.10;;;;;;;12.11;100.00;99000.31;5110659;27;20027;-90
2022/07/27 04:51:47;;;;;;;8.93;3.90;;;;;;;12.11;100.00;99000.31;5111877;27;20038;-92
2022/07/27 04:54:13;;;;;;;9.48;3.97;;;;;;;12.07;100.00;98997.75;5108850;27;20058;-91
2022/07/27 04:56:38;;;;;;;10.38;3.95;;;;;;;12.08;100.00;98989.91;5109508;27;20436;-91
2022/07/27 04:59:04;;;;;;;10.93;3.92;;;;;;;12.04;100.00;98992.53;5108185;27;20031;-93
2022/07/27 05:01:29;;;;;;;8.43;3.65;;;;;;;12.02;100.00;98992.56;5107959;27;20027;-91
2022/07/27 05:03:56;;;;;;;10.43;4.00;;;;;;;12.19;100.00;98989.78;5111745;27;20131;-92
2022/07/27 05:06:22;;;;;;;9.65;3.67;;;;;;;12.04;100.00;98977.75;5112668;27;20043;-91
2022/07/27 05:08:47;;;;;;;10.88;3.58;;;;;;;11.94;100.00;98976.09;5109514;27;20154;-91
2022/07/27 05:11:13;;;;;;;10.80;3.67;;;;;;;12.00;100.00;98986.50;5107591;27;20030;-92
2022/07/27 05:13:39;;;;;;;8.50;3.30;;;;;;;12.16;100.00;98989.78;5112639;27;20055;-92
2022/07/27 05:16:09;;;;;;;9.38;3.00;;;;;;;12.18;100.00;98988.03;5109937;27;20394;-92
2022/07/27 05:18:35;;;;;;;8.57;3.33;;;;;;;12.16;100.00;98984.56;5109587;27;20066;-92
2022/07/27 05:21:02;;;;;;;7.95;3.10;;;;;;;12.22;100.00;98988.84;5110900;27;20095;-93
2022/07/27 05:23:27;;;;;;;10.02;3.70;;;;;;;12.24;100.00;98992.34;5108298;27;20526;-92
2022/07/27 05:25:53;;;;;;;8.85;3.42;;;;;;;12.15;100.00;98990.69;5113259;27;20458;-92
2022/07/27 05:28:18;;;;;;;8.75;3.38;;;;;;;12.03;100.00;98993.44;5111953;27;20027;-92
2022/07/27 05:30:44;;;;;;;8.40;3.03;;;;;;;12.17;100.00;98998.53;5110560;27;20079;-91
2022/07/27 05:33:10;;;;;;;10.43;3.20;;;;;;;12.11;100.00;98997.69;5113400;27;20092;-91
2022/07/27 05:35:36;;;;;;;9.93;2.95;;;;;;;12.21;100.00;98993.22;5113278;27;20035;-92
2022/07/27 05:38:02;;;;;;;8.15;2.97;;;;;;;12.15;100.00;98990.69;5110213;27;20116;-93
2022/07/27 05:40:28;;;;;;;10.50;3.53;;;;;;;11.92;100.00;98993.53;5112726;27;20114;-92
2022/07/27 05:42:54;;;;;;;10.52;3.42;;;;;;;12.11;100.00;98984.63;5109049;27;20574;-94
2022/07/27 05:45:19;;;;;;;8.95;3.50;;;;;;;11.98;100.00;98979.56;5113338;27;20019;-94
2022/07/27 05:47:48;;;;;;;10.88;4.07;;;;;;;12.17;100.00;98981.06;5110634;27;20031;-91
2022/07/27 05:50:18;;;;;;;9.57;3.83;;;;;;;12.27;100.00;98979.22;5107283;27;20354;-92
2022/07/27 05:52:43;;;;;;;9.43;3.63;;;;;;;12.50;100.00;98973.69;5111276;27;20039;-96
2022/07/27 05:55:09;;;;;;;9.18;4.03;;;;;;;12.43;100.00;98978.13;5113157;27;20047;-93
2022/07/27 05:57:36;;;;;;;11.88;4.35;;;;;;;12.60;100.00;98977.06;5110919;27;20054;-91
2022/07/27 06:00:04;;;;;;;10.25;4.00;;;;;;;12.70;100.00;98986.50;5109358;27;20107;-92
2022/07/27 06:02:30;;;;;;;10.82;3.63;;;;;;;12.80;100.00;98985.50;5111593;27;20019;-91
2022/07/27 06:04:56;;;;;;;13.48;4.22;;;;;;;12.73;100.00;98986.44;5110045;27;20095;-91
2022/07/27 06:10:06;;;;;;;10.57;4.43;;;;;;;12.83;100.00;98986.31;5111860;27;20452;-91
2022/07/27 06:12:39;;;;;;;11.88;5.10;;;;;;;12.77;100.00;98992.50;5108166;27;20027;-91
2022/07/27 06:15:06;;;;;;;;;;;;;;;13.04;100.00;98992.97;5107910;27;20038;-91
2022/07/27 06:17:31;;;;;;;10.85;4.22;;;;;;;13.20;100.00;98993.63;5109841;27;19923;-92
2022/07/27 06:19:57;;;;;;;11.43;3.70;;;;;;;13.22;100.00;98986.59;5108920;27;20671;-91
2022/07/27 06:22:22;;;;;;;9.80;3.75;;;;;;;13.49;100.00;98978.31;5107179;27;20801;-91
2022/07/27 06:24:48;;;;;;;12.00;3.97;;;;;;;13.83;100.00;98974.22;5110214;27;20108;-90
2022/07/27 06:27:13;;;;;;;11.35;3.78;;;;;;;15.21;100.00;98932.75;5107744;27;20027;-90
2022/07/27 06:29:39;;;;;;;9.35;3.30;;;;;;;15.99;100.00;98893.00;5109184;27;20763;-91
2022/07/27 06:32:05;;;;;;;11.05;3.33;;;;;;;15.35;100.00;98903.47;5108765;27;20041;-91
2022/07/27 06:34:31;;;;;;;9.65;3.80;;;;;;;15.73;100.00;98893.72;5109158;27;20019;-91
2022/07/27 06:36:58;;;;;;;11.27;3.65;;;;;;;15.72;100.00;98883.25;5106583;27;20111;-92
2022/07/27 06:39:25;;;;;;;8.93;3.60;;;;;;;14.63;100.00;98903.53;5110294;27;20031;-90
2022/07/27 06:41:50;;;;;;;12.82;4.22;;;;;;;14.90;100.00;98915.13;5108796;27;20027;-91
2022/07/27 06:44:15;;;;;;;16.33;4.55;;;;;;;15.50;100.00;98903.09;5109388;27;20379;-91
2022/07/27 06:46:41;;;;;;;17.55;4.97;;;;;;;15.38;100.00;98908.69;5109897;27;20030;-91
2022/07/27 06:49:07;;;;;;;15.88;5.13;;;;;;;15.51;100.00;98907.44;5105750;27;20102;-91
2022/07/27 06:51:32;;;;;;;15.93;5.60;;;;;;;15.47;100.00;98913.69;5107394;27;20441;-91
2022/07/27 06:53:58;;;;;;;15.55;6.28;;;;;;;16.02;100.00;98900.81;5109063;28;20035;-91
2022/07/27 06:56:23;;;;;;;14.60;6.70;;;;;;;14.83;100.00;98910.91;5106981;27;20402;-92
2022/07/27 06:58:50;;;;;;;15.18;6.35;;;;;;;15.73;100.00;98903.34;5107841;27;20130;-91
2022/07/27 07:01:16;;;;;;;15.75;6.97;;;;;;;15.70;100.00;98899.91;5110155;27;20076;-91
2022/07/27 07:03:42;;;;;;;16.83;7.20;;;;;;;15.57;100.00;98903.78;5111027;27;20038;-92
2022/07/27 07:06:07;;;;;;;18.75;7.10;;;;;;;15.27;100.00;98906.31;5110293;27;20038;-91
2022/07/27 07:08:33;;;;;;;17.15;7.35;;;;;;;15.67;100.00;98917.53;5110969;27;20141;-91
2022/07/27 07:10:58;;;;;;;19.98;8.82;;;;;;;15.80;100.00;98897.06;5109548;27;20028;-91
2022/07/27 07:13:24;;;;;;;22.40;10.00;;;;;;;15.37;100.00;98899.06;5107584;27;20172;-91
2022/07/27 07:15:50;;;;;;;25.38;9.90;;;;;;;15.93;100.00;98889.69;5110320;27;20031;-92
2022/07/27 07:18:15;;;;;;;24.00;10.73;;;;;;;15.57;100.00;98884.53;5108838;27;20035;-92
2022/07/27 07:20:41;;;;;;;21.10;9.95;;;;;;;15.82;100.00;98887.38;5109934;27;20482;-92
2022/07/27 07:23:07;;;;;;;22.10;10.18;;;;;;;15.95;100.00;98883.47;5113321;27;20030;-92
2022/07/27 07:25:34;;;;;;;24.83;11.07;;;;;;;16.29;100.00;98895.63;5111227;27;20049;-92
2022/07/27 07:28:00;;;;;;;20.27;10.45;;;;;;;16.37;100.00;98882.25;5108682;27;20754;-92
2022/07/27 07:30:27;;;;;;;19.08;9.95;;;;;;;16.23;100.00;98873.91;5111608;27;20041;-92
2022/07/27 07:32:52;;;;;;;21.52;9.90;;;;;;;16.26;100.00;98892.25;5128126;27;20039;-91
2022/07/27 07:35:18;;;;;;;23.67;10.95;;;;;;;15.66;100.00;98898.28;5110924;27;20035;-92
2022/07/27 07:37:43;;;;;;;22.25;10.98;;;;;;;15.97;100.00;98892.19;5115722;27;20037;-94
2022/07/27 07:40:09;;;;;;;19.23;9.48;;;;;;;16.01;100.00;98900.84;5118502;27;20050;-93
2022/07/27 07:42:50;;;;;;;22.45;10.32;;;;;;;15.85;100.00;98893.41;5119430;27;20138;-93
2022/07/27 07:45:16;;;;;;;18.17;9.13;;;;;;;16.32;100.00;98884.16;5114368;27;20400;-94
2022/07/27 07:47:41;;;;;;;19.73;10.23;;;;;;;16.33;100.00;98886.72;5112346;27;20046;-92
2022/07/27 07:50:07;;;;;;;23.45;9.88;;;;;;;16.02;100.00;98882.41;5113061;27;20756;-93
2022/07/27 07:52:34;;;;;;;22.20;10.45;;;;;;;16.17;100.00;98890.72;5114441;27;20119;-93
2022/07/27 07:54:59;;;;;;;18.20;9.52;;;;;;;16.17;100.00;98891.63;5112534;27;20362;-93
2022/07/27 07:57:25;;;;;;;22.58;9.60;;;;;;;16.60;100.00;98886.78;5108374;27;20517;-93
2022/07/27 07:59:50;;;;;;;18.77;9.85;;;;;;;16.82;100.00;98878.19;5110644;27;20038;-95
2022/07/27 08:02:16;;;;;;;18.48;9.68;;;;;;;16.96;100.00;98876.00;5115150;27;20138;-93
2022/07/27 08:04:41;;;;;;;20.17;9.25;;;;;;;17.25;100.00;98891.75;5117717;27;20028;-93
2022/07/27 08:07:08;;;;;;;21.30;9.93;;;;;;;16.87;100.00;98890.31;5115286;27;20031;-93
2022/07/27 08:09:33;;;;;;;19.30;9.95;;;;;;;16.93;100.00;98897.19;5120220;27;20023;-93
2022/07/27 08:11:59;;;;;;;20.15;9.55;;;;;;;16.82;100.00;98894.00;5113835;27;20492;-93
2022/07/27 08:14:25;;;;;;;19.75;9.02;;;;;;;17.06;100.00;98895.00;5113090;27;20066;-92
2022/07/27 08:16:51;;;;;;;23.75;9.32;;;;;;;16.40;100.00;98903.22;5116809;27;20052;-94
2022/07/27 08:19:17;;;;;;;20.65;9.32;;;;;;;17.26;100.00;98896.09;5114420;27;20028;-93
2022/07/27 08:21:42;;;;;;;18.45;8.93;;;;;;;16.67;100.00;98908.53;5113907;27;20448;-93
2022/07/27 08:24:08;;;;;;;18.27;8.90;;;;;;;16.99;100.00;98907.53;5118945;27;20035;-91
2022/07/27 08:26:33;;;;;;;21.60;9.25;;;;;;;17.74;100.00;98892.66;5111579;27;20044;-92
2022/07/27 08:28:59;;;;;;;19.25;9.23;;;;;;;17.36;100.00;98890.47;5118585;27;20380;-93
2022/07/27 08:31:24;;;;;;;16.80;8.65;;;;;;;17.10;100.00;98896.63;5115662;27;20023;-93
2022/07/27 08:33:50;;;;;;;15.73;8.82;;;;;;;17.67;100.00;98897.28;5115125;27;20031;-92
2022/07/27 08:36:15;;;;;;;16.05;9.40;;;;;;;17.01;100.00;98892.53;5110534;27;20047;-92
2022/07/27 08:38:41;;;;;;;19.13;9.95;;;;;;;17.01;100.00;98896.94;5112009;27;20482;-92
2022/07/27 08:41:10;;;;;;;19.10;9.80;;;;;;;17.57;100.00;98894.13;5110119;27;20118;-93
2022/07/27 08:43:36;;;;;;;18.48;10.35;;;;;;;17.40;100.00;98896.50;5114388;27;20039;-94
2022/07/27 08:46:02;;;;;;;18.55;9.77;;;;;;;17.91;100.00;98892.06;5114317;27;20130;-92
2022/07/27 08:48:29;;;;;;;19.77;10.02;;;;;;;16.76;100.00;98895.06;5111764;27;20019;-92
2022/07/27 08:50:55;;;;;;;19.30;10.18;;;;;;;17.49;100.00;98893.53;5114348;27;20092;-93
2022/07/27 08:53:22;;;;;;;18.77;9.68;;;;;;;17.53;100.00;98889.88;5118557;27;20034;-92
2022/07/27 08:55:48;;;;;;;20.13;9.38;;;;;;;18.02;100.00;98891.66;5107718;27;20054;-92
2022/07/27 08:58:14;;;;;;;19.88;9.55;;;;;;;17.92;100.00;98891.16;5112997;27;20023;-93
2022/07/27 09:00:43;;;;;;;21.02;10.10;;;;;;;17.30;100.00;98890.69;5113464;27;20744;-92
2022/07/27 09:03:17;;;;;;;16.27;8.32;;;;;;;17.19;100.00;98890.19;5109870;27;20027;-92
2022/07/27 09:05:49;;;;;;;20.98;9.65;;;;;;;16.67;100.00;98890.09;5114037;27;20131;-93
2022/07/27 09:08:26;;;;;;;22.17;10.25;;;;;;;17.59;100.00;98888.78;5114048;27;20027;-92
2022/07/27 09:10:55;;;;;;;18.08;9.05;;;;;;;16.87;100.00;98882.41;5110618;27;20062;-92
2022/07/27 09:13:24;;;;;;;17.95;8.85;;;;;;;17.60;100.00;98890.50;5111909;27;20031;-92
2022/07/27 09:16:00;;;;;;;19.13;9.32;;;;;;;17.67;100.00;98876.19;5109668;27;20585;-92
2022/07/27 09:18:30;;;;;;;21.65;8.93;;;;;;;17.69;100.00;98871.72;5112570;27;20027;-91
2022/07/27 09:21:13;;;;;;;16.20;8.70;;;;;;;18.25;100.00;98878.47;5112071;27;20027;-92
2022/07/27 09:24:10;;;;;;;17.65;8.65;;;;;;;17.15;100.00;98876.25;5115399;27;20043;-96
2022/07/27 09:26:37;;;;;;;17.10;7.38;;;;;;;17.53;100.00;98873.19;5110443;27;20073;-94
2022/07/27 09:29:04;;;;;;;14.63;7.53;;;;;;;18.06;100.00;98865.13;5120148;27;20027;-94
2022/07/27 09:31:30;;;;;;;14.48;6.90;;;;;;;18.57;100.00;98859.66;5117928;27;20027;-94
2022/07/27 09:34:01;;;;;;;14.40;6.70;;;;;;;18.58;100.00;98850.81;5112414;27;20049;-94
2022/07/27 09:36:28;;;;;;;15.50;7.50;;;;;;;18.48;100.00;98858.22;5117471;27;20092;-94
2022/07/27 09:38:59;;;;;;;17.67;7.90;;;;;;;18.37;100.00;98855.13;5112879;27;20035;-94
2022/07/27 09:41:25;;;;;;;14.25;6.93;;;;;;;18.05;100.00;98859.88;5117793;27;20413;-94
2022/07/27 09:43:55;;;;;;;17.05;6.88;;;;;;;17.89;100.00;98860.44;5114539;27;20031;-93
2022/07/27 09:46:33;;;;;;;16.27;7.25;;;;;;;17.87;100.00;98858.75;5118995;27;20048;-94
2022/07/27 09:48:59;;;;;;;19.02;7.05;;;;;;;18.16;100.00;98857.72;5115912;27;20054;-93
2022/07/27 09:51:25;;;;;;;17.67;6.68;;;;;;;18.66;100.00;98848.69;5112206;27;20019;-93
2022/07/27 09:54:13;;;;;;;13.45;6.72;;;;;;;18.35;100.00;98855.19;5114566;27;20042;-96
2022/07/27 09:56:39;;;;;;;13.90;5.78;;;;;;;18.82;100.00;98843.66;5115940;27;20902;-92
2022/07/27 09:59:05;;;;;;;10.52;5.28;;;;;;;19.01;100.00;98843.78;5119204;27;20027;-93
2022/07/27 10:01:36;;;;;;;10.63;5.03;;;;;;;19.09;100.00;98844.31;5115904;27;20122;-94
2022/07/27 10:04:47;;;;;;;;;;;;;;;;;;;;;
2022/07/27 10:07:39;;;;;;;10.82;4.30;;;;;;;19.16;100.00;98829.03;5117814;27;20421;-92
2022/07/27 10:10:06;;;;;;;11.27;3.97;;;;;;;18.25;100.00;98838.00;5127450;27;20131;-95
2022/07/27 10:12:34;;;;;;;7.93;3.50;;;;;;;18.51;100.00;98834.34;5118521;27;20038;-93
2022/07/27 10:15:00;;;;;;;10.30;3.20;;;;;;;18.91;100.00;98826.56;5119256;27;20042;-95
2022/07/27 10:17:26;;;;;;;9.02;3.28;;;;;;;19.59;100.00;98824.50;5114721;27;20074;-91
2022/07/27 10:19:52;;;;;;;10.77;3.63;;;;;;;19.20;100.00;98840.34;5115166;27;20740;-90
2022/07/27 10:22:55;;;;;;;8.93;3.78;;;;;;;20.00;100.00;98834.16;5113152;27;20054;-90
2022/07/27 10:25:26;;;;;;;10.32;3.65;;;;;;;21.26;100.00;98832.44;5112934;27;20030;-92
2022/07/27 10:28:12;;;;;;;9.55;4.10;;;;;;;21.11;100.00;98835.88;5113073;27;20521;-91
2022/07/27 10:30:38;;;;;;;9.35;3.40;;;;;;;22.41;100.00;98834.34;5110074;27;20027;-91
2022/07/27 10:33:36;;;;;;;10.15;3.28;;;;;;;21.12;100.00;98835.81;5109056;27;20139;-90
2022/07/27 10:36:03;;;;;;;7.35;2.75;;;;;;;21.40;100.00;98837.03;5108584;27;20039;-91
2022/07/27 10:38:51;;;;;;;8.15;3.35;;;;;;;21.45;100.00;98828.84;5107266;27;20084;-90
2022/07/27 10:41:28;;;;;;;9.30;3.17;;;;;;;21.02;100.00;98831.91;5110201;27;20122;-90
2022/07/27 10:44:21;;;;;;;13.27;3.58;;;;;;;21.33;100.00;98840.09;5105683;27;20102;-91
2022/07/27 10:46:51;;;;;;;;;;;;;;;21.42;100.00;98829.88;5109090;27;20054;-91
2022/07/27 10:49:22;;;;;;;8.90;2.97;;;;;;;21.65;100.00;98822.50;5106214;27;19923;-90
2022/07/27 10:51:51;;;;;;;8.18;2.88;;;;;;;22.20;100.00;98820.41;5105832;27;20027;-90
2022/07/27 10:54:31;;;;;;;9.65;3.13;;;;;;;21.23;100.00;98823.81;5107738;27;20039;-91
2022/07/27 10:56:59;;;;;;;10.25;2.90;;;;;;;22.15;100.00;98826.84;5108390;27;20042;-91
2022/07/27 10:59:43;;;;;;;9.45;3.03;;;;;;;21.73;100.00;98822.09;5108141;28;20107;-90
2022/07/27 11:02:10;;;;;;;8.48;2.90;;;;;;;22.59;100.00;98819.13;5107093;27;20505;-91
2022/07/27 11:04:51;;;;;;;8.75;3.13;;;;;;;23.97;100.00;98825.13;5111103;27;20079;-92
2022/07/27 11:07:19;;;;;;;8.18;2.88;;;;;;;23.13;100.00;98826.66;5104711;28;20072;-91
2022/07/27 11:09:47;;;;;;;7.00;2.53;;;;;;;23.60;100.00;98824.72;5125985;27;20623;-91
2022/07/27 11:12:15;;;;;;;8.45;2.65;;;;;;;22.40;100.00;98824.66;5111619;27;20513;-90
2022/07/27 11:14:45;;;;;;;9.15;2.28;;;;;;;21.35;100.00;98825.81;5112397;28;20026;-90
2022/07/27 11:17:10;;;;;;;9.48;2.22;;;;;;;22.60;100.00;98820.84;5109366;28;20047;-91
2022/07/27 11:19:36;;;;;;;7.00;2.08;;;;;;;23.57;100.00;98809.78;5110043;27;20016;-90
2022/07/27 11:22:02;;;;;;;9.30;2.53;;;;;;;23.26;100.00;98813.50;5109846;27;20038;-90
2022/07/27 11:24:28;;;;;;;8.27;2.45;;;;;;;21.19;100.00;98814.28;5107646;27;20073;-92
2022/07/27 11:26:53;;;;;;;7.60;1.92;;;;;;;21.38;100.00;98800.91;5111222;27;20031;-91